Time;durP1;ratioP1;P1;durP2;ratioP2;P2;SDS_P1;SDS_P2;PMS_P1;PMS_P2;Temp;Humidity;BMP_temperature;BMP_pressure;BME280_temperature;BME280_humidity;BME280_pressure;Samples;Min_cycle;Max_cycle;Signal;HPM_P1;HPM_P2
2022/05/25 00:01:42;;;;;;;4.43;2.25;;;;;;;11.20;66.24;100373.34;5056843;28;20166;-53
2022/05/25 00:04:08;;;;;;;4.13;1.13;;;;;;;11.17;66.89;100383.66;5057629;28;20020;-54
2022/05/25 00:06:34;;;;;;;5.25;1.48;;;;;;;11.14;66.69;100376.81;5075020;28;20040;-50
2022/05/25 00:09:01;;;;;;;3.47;1.10;;;;;;;11.12;67.35;100384.25;5056486;28;20472;-48
2022/05/25 00:11:27;;;;;;;2.55;1.23;;;;;;;11.09;67.64;100383.81;5056588;28;20496;-48
2022/05/25 00:13:53;;;;;;;2.22;1.20;;;;;;;11.06;67.68;100392.31;5056960;28;20020;-52
2022/05/25 00:16:18;;;;;;;2.83;1.40;;;;;;;11.01;67.46;100396.41;5056591;28;20040;-48
2022/05/25 00:21:30;;;;;;;4.22;1.15;;;;;;;10.96;67.57;100404.25;5059293;28;20043;-50
2022/05/25 00:23:57;;;;;;;1.70;1.10;;;;;;;10.94;67.72;100402.75;5074352;28;20405;-47
2022/05/25 00:26:23;;;;;;;3.70;1.38;;;;;;;10.85;67.63;100394.88;5074422;28;20115;-47
2022/05/25 00:28:48;;;;;;;3.92;1.40;;;;;;;10.75;68.18;100388.19;5056838;28;20043;-51
2022/05/25 00:31:14;;;;;;;2.58;1.27;;;;;;;10.84;67.97;100405.81;5073949;28;20025;-50
2022/05/25 00:33:40;;;;;;;2.83;1.38;;;;;;;10.73;68.61;100395.59;5055312;28;20036;-51
2022/05/25 00:36:06;;;;;;;1.63;1.20;;;;;;;10.73;68.47;100404.47;5073934;28;20042;-49
2022/05/25 00:38:32;;;;;;;1.98;1.20;;;;;;;10.72;69.13;100393.97;5056056;28;20036;-50
2022/05/25 00:40:58;;;;;;;2.50;1.30;;;;;;;10.65;68.86;100389.34;5073988;28;20028;-49
2022/05/25 00:43:24;;;;;;;1.63;1.25;;;;;;;10.69;69.08;100394.34;5073775;28;20032;-50
2022/05/25 00:45:55;;;;;;;9.63;1.30;;;;;;;10.63;68.99;100399.47;5073973;28;20052;-50
2022/05/25 00:48:35;;;;;;;3.45;1.13;;;;;;;10.62;68.52;100405.88;5073896;28;20492;-47
2022/05/25 00:51:21;;;;;;;3.35;1.30;;;;;;;10.57;67.71;100399.44;5056113;28;20036;-48
2022/05/25 00:53:54;;;;;;;4.32;1.30;;;;;;;10.54;69.02;100414.06;5074846;28;20035;-51
2022/05/25 00:56:21;;;;;;;5.97;1.30;;;;;;;10.49;69.33;100408.44;5074977;28;20434;-49
2022/05/25 00:58:57;;;;;;;2.45;1.30;;;;;;;10.45;69.37;100410.69;5074774;28;20039;-48
2022/05/25 01:01:24;;;;;;;3.17;1.27;;;;;;;10.36;68.99;100409.16;5074355;28;20556;-51
2022/05/25 01:03:50;;;;;;;3.55;1.10;;;;;;;10.34;69.26;100413.06;5074525;28;20036;-51
2022/05/25 01:06:28;;;;;;;2.63;1.25;;;;;;;10.30;69.72;100415.28;5058242;28;20035;-51
2022/05/25 01:09:20;;;;;;;2.50;1.20;;;;;;;10.28;70.17;100410.09;5076544;28;20040;-52
2022/05/25 01:12:09;;;;;;;3.33;1.23;;;;;;;10.17;70.07;100396.38;5077880;28;20076;-52
2022/05/25 01:15:01;;;;;;;6.72;1.40;;;;;;;10.23;70.84;100409.88;5078306;28;20033;-48
2022/05/25 01:18:06;;;;;;;7.97;1.38;;;;;;;10.20;70.43;100406.75;5077781;28;20051;-48
2022/05/25 01:20:43;;;;;;;4.03;1.42;;;;;;;10.13;70.49;100412.03;5051582;28;20025;-48
2022/05/25 01:23:38;;;;;;;4.07;1.50;;;;;;;10.11;70.65;100408.72;5078819;28;20044;-50
2022/05/25 01:26:44;;;;;;;4.75;1.60;;;;;;;10.08;70.67;100406.41;5062396;28;20085;-49
2022/05/25 01:29:41;;;;;;;6.78;1.42;;;;;;;10.05;71.04;100413.00;5050927;28;20453;-47
2022/05/25 01:32:15;;;;;;;3.30;1.33;;;;;;;10.00;70.89;100410.03;5059176;28;20115;-48
2022/05/25 01:34:51;;;;;;;3.53;1.48;;;;;;;10.01;71.08;100414.41;5077133;28;20051;-47
2022/05/25 01:37:35;;;;;;;4.35;1.77;;;;;;;9.99;71.03;100416.44;5076794;28;20460;-48
2022/05/25 01:40:13;;;;;;;5.82;1.67;;;;;;;9.97;71.24;100407.72;5076842;28;20043;-49
2022/05/25 01:42:47;;;;;;;5.75;1.92;;;;;;;9.97;71.39;100421.16;5058446;28;20025;-49
2022/05/25 01:45:15;;;;;;;7.30;1.80;;;;;;;9.89;71.24;100408.69;5076894;28;20031;-48
2022/05/25 01:47:45;;;;;;;4.47;1.80;;;;;;;9.97;71.04;100417.66;5058436;28;20074;-48
2022/05/25 01:50:16;;;;;;;3.35;1.77;;;;;;;9.96;70.85;100406.09;5058781;28;20362;-50
2022/05/25 01:52:48;;;;;;;4.93;1.55;;;;;;;9.98;70.91;100403.22;5076566;28;20123;-49
2022/05/25 01:55:21;;;;;;;6.32;1.90;;;;;;;10.02;70.81;100401.81;5058780;28;20036;-48
2022/05/25 01:57:52;;;;;;;6.03;1.75;;;;;;;10.06;71.11;100405.75;5076352;28;20373;-49
2022/05/25 02:00:31;;;;;;;2.83;1.75;;;;;;;10.10;70.94;100406.22;5076570;28;20025;-50
2022/05/25 02:06:18;;;;;;;5.63;1.80;;;;;;;9.98;71.56;100397.84;5047698;28;20385;-48
2022/05/25 02:09:23;;;;;;;4.68;1.67;;;;;;;9.89;71.99;100392.59;5063759;28;20453;-49
2022/05/25 02:12:04;;;;;;;4.75;1.58;;;;;;;9.92;71.13;100395.91;5050254;28;20464;-48
2022/05/25 02:14:55;;;;;;;3.05;1.17;;;;;;;9.89;71.56;100406.00;5058191;28;20527;-48
2022/05/25 02:17:32;;;;;;;5.78;1.67;;;;;;;9.77;72.73;100406.69;5061150;28;20060;-48
2022/05/25 02:20:09;;;;;;;11.30;2.15;;;;;;;9.74;72.76;100407.09;5076126;28;20400;-53
2022/05/25 02:22:41;;;;;;;3.80;1.92;;;;;;;9.73;72.78;100411.59;5062816;28;20415;-48
2022/05/25 02:25:17;;;;;;;7.70;1.70;;;;;;;9.81;72.48;100411.50;5077992;28;20032;-49
2022/05/25 02:27:51;;;;;;;4.57;1.42;;;;;;;9.89;71.52;100397.97;5096284;28;20024;-49
2022/05/25 02:30:20;;;;;;;2.45;1.50;;;;;;;9.92;71.16;100385.19;5095845;28;20028;-50
2022/05/25 02:32:53;;;;;;;5.10;1.60;;;;;;;9.93;71.94;100403.78;5061250;28;20024;-49
2022/05/25 02:35:23;;;;;;;4.00;1.70;;;;;;;9.96;71.55;100405.28;5096082;28;20024;-49
2022/05/25 02:37:51;;;;;;;4.20;1.52;;;;;;;9.96;71.82;100406.09;5095951;28;20035;-49
2022/05/25 02:40:17;;;;;;;4.20;1.40;;;;;;;10.05;71.37;100404.13;5095538;28;20039;-48
2022/05/25 02:42:43;;;;;;;4.88;1.75;;;;;;;10.05;71.49;100398.75;5095801;28;20039;-48
2022/05/25 02:45:11;;;;;;;2.60;1.60;;;;;;;10.05;71.38;100398.75;5095896;28;20403;-48
2022/05/25 02:47:38;;;;;;;3.63;1.30;;;;;;;10.06;71.09;100387.81;5077480;28;20077;-48
2022/05/25 02:50:05;;;;;;;6.03;1.55;;;;;;;10.01;71.55;100390.25;5095562;28;20109;-48
2022/05/25 02:52:32;;;;;;;2.38;1.45;;;;;;;10.05;70.84;100385.34;5095444;28;20036;-48
2022/05/25 02:54:58;;;;;;;2.53;1.20;;;;;;;10.04;71.11;100384.50;5077658;28;20111;-49
2022/05/25 02:57:23;;;;;;;5.63;1.20;;;;;;;10.03;71.49;100379.34;5077994;28;20103;-49
2022/05/25 02:59:49;;;;;;;1.83;1.00;;;;;;;10.04;71.15;100384.50;5077478;28;20032;-52
2022/05/25 03:02:15;;;;;;;3.22;1.08;;;;;;;9.97;71.43;100385.44;5095173;28;20024;-52
2022/05/25 03:04:41;;;;;;;6.53;1.45;;;;;;;9.81;71.44;100363.22;5095424;28;20028;-53
2022/05/25 03:07:07;;;;;;;3.03;1.50;;;;;;;9.93;71.56;100378.81;5095633;28;20079;-51
2022/05/25 03:09:36;;;;;;;5.35;1.40;;;;;;;9.82;71.39;100380.97;5076880;28;20042;-49
2022/05/25 03:12:03;;;;;;;2.20;1.60;;;;;;;9.91;71.32;100381.69;5077057;28;20452;-49
2022/05/25 03:14:29;;;;;;;2.85;1.35;;;;;;;9.93;71.10;100381.50;5095307;28;20030;-48
2022/05/25 03:16:55;;;;;;;2.60;1.45;;;;;;;9.94;71.27;100388.53;5095616;28;20043;-48
2022/05/25 03:19:21;;;;;;;4.13;1.85;;;;;;;9.91;70.83;100391.59;5095389;28;20028;-48
2022/05/25 03:21:47;;;;;;;4.75;1.52;;;;;;;9.92;71.24;100390.56;5095211;28;20035;-48
2022/05/25 03:24:14;;;;;;;4.18;1.30;;;;;;;9.77;71.34;100372.69;5075237;28;20049;-50
2022/05/25 03:26:40;;;;;;;3.35;1.42;;;;;;;9.77;71.44;100377.19;5074480;28;20032;-48
2022/05/25 03:29:07;;;;;;;4.93;1.38;;;;;;;9.82;71.55;100396.25;5074962;28;20032;-48
2022/05/25 03:31:33;;;;;;;2.40;1.30;;;;;;;9.70;71.31;100377.16;5076234;28;20467;-52
2022/05/25 03:33:58;;;;;;;4.00;1.45;;;;;;;9.70;70.96;100385.19;5074402;28;20028;-49
2022/05/25 03:36:25;;;;;;;2.95;1.73;;;;;;;9.67;72.23;100407.00;5074632;28;20032;-49
2022/05/25 03:38:50;;;;;;;2.58;1.30;;;;;;;9.55;71.97;100401.31;5074651;28;20097;-49
2022/05/25 03:41:17;;;;;;;2.08;1.15;;;;;;;9.56;72.92;100410.19;5074431;28;20060;-50
2022/05/25 03:43:45;;;;;;;4.28;1.70;;;;;;;9.54;72.84;100412.22;5057220;28;20025;-49
2022/05/25 03:46:11;;;;;;;5.78;1.90;;;;;;;9.34;73.32;100391.34;5057370;28;20375;-52
2022/05/25 03:48:36;;;;;;;7.07;1.60;;;;;;;9.37;73.22;100393.69;5074531;28;20028;-53
2022/05/25 03:51:03;;;;;;;2.35;1.27;;;;;;;9.54;72.56;100401.50;5056572;28;20051;-49
2022/05/25 03:53:29;;;;;;;4.90;1.77;;;;;;;9.53;72.47;100400.69;5074429;28;20024;-50
2022/05/25 03:55:55;;;;;;;2.75;1.40;;;;;;;9.63;72.15;100401.19;5058002;28;20039;-52
2022/05/25 03:58:20;;;;;;;3.38;1.77;;;;;;;9.60;73.30;100406.09;5075620;28;20024;-48
2022/05/25 04:00:46;;;;;;;3.22;1.70;;;;;;;9.36;72.91;100364.38;5074869;28;20468;-48
2022/05/25 04:03:14;;;;;;;2.97;1.60;;;;;;;9.61;72.99;100399.72;5074617;28;20479;-50
2022/05/25 04:05:41;;;;;;;4.13;1.40;;;;;;;9.64;72.92;100404.72;5074642;28;20041;-49
2022/05/25 04:08:08;;;;;;;3.13;1.38;;;;;;;9.62;73.35;100407.59;5074416;28;20587;-47
2022/05/25 04:10:34;;;;;;;3.05;1.20;;;;;;;9.65;73.23;100409.06;5039939;28;20060;-48
2022/05/25 04:13:01;;;;;;;8.02;1.67;;;;;;;9.63;73.37;100400.38;5076347;28;20021;-51
2022/05/25 04:15:28;;;;;;;3.10;1.42;;;;;;;9.60;73.97;100401.59;5073924;28;20033;-52
2022/05/25 04:17:54;;;;;;;5.55;1.65;;;;;;;9.51;74.75;100400.03;5056343;28;20051;-49
2022/05/25 04:20:22;;;;;;;3.15;1.50;;;;;;;9.54;74.43;100413.06;5073939;28;20032;-50
2022/05/25 04:22:48;;;;;;;4.55;1.55;;;;;;;9.50;74.32;100401.88;5063219;28;20052;-51
2022/05/25 04:25:17;;;;;;;6.80;2.00;;;;;;;9.50;74.39;100387.66;5075892;28;20391;-48
2022/05/25 04:27:44;;;;;;;7.18;1.65;;;;;;;9.55;74.83;100401.31;5094337;28;20024;-49
2022/05/25 04:30:14;;;;;;;4.57;2.20;;;;;;;9.58;74.10;100408.16;5094210;28;20036;-48
2022/05/25 04:32:40;;;;;;;4.30;1.60;;;;;;;9.52;74.30;100411.59;5093797;28;20111;-47
2022/05/25 04:35:07;;;;;;;3.13;1.13;;;;;;;9.56;73.68;100415.53;5093724;28;20467;-50
2022/05/25 04:40:31;;;;;;;5.93;1.63;;;;;;;9.53;74.39;100423.97;5079061;28;20042;-48
2022/05/25 04:42:58;;;;;;;4.03;1.40;;;;;;;9.54;74.13;100420.28;5075576;28;20158;-48
2022/05/25 04:45:26;;;;;;;4.97;1.25;;;;;;;9.59;73.51;100420.53;5060105;28;20032;-48
2022/05/25 04:47:53;;;;;;;3.45;1.23;;;;;;;9.62;73.38;100414.78;5080233;28;20107;-48
2022/05/25 04:50:22;;;;;;;6.20;1.30;;;;;;;9.63;74.33;100419.16;5079862;28;20020;-51
2022/05/25 04:52:48;;;;;;;2.80;1.50;;;;;;;9.56;75.09;100419.06;5097733;28;20031;-51
2022/05/25 04:58:02;;;;;;;4.60;1.27;;;;;;;9.61;74.08;100413.97;5082705;28;20349;-50
2022/05/25 05:00:29;;;;;;;3.88;1.05;;;;;;;9.72;73.93;100433.28;5063405;28;20390;-48
2022/05/25 05:02:55;;;;;;;3.80;1.00;;;;;;;9.59;73.89;100415.19;5080123;28;20035;-50
2022/05/25 05:05:21;;;;;;;3.42;1.20;;;;;;;9.81;73.65;100422.25;5079914;28;20535;-50
2022/05/25 05:07:47;;;;;;;6.03;2.17;;;;;;;9.92;73.93;100428.09;5098526;28;20036;-49
2022/05/25 05:10:14;;;;;;;5.25;1.17;;;;;;;9.96;74.03;100413.31;5099145;28;20031;-49
2022/05/25 05:12:41;;;;;;;4.30;1.10;;;;;;;10.04;73.48;100416.69;5098721;28;20380;-50
2022/05/25 05:15:07;;;;;;;5.40;1.30;;;;;;;10.12;73.40;100406.84;5079532;28;20024;-51
2022/05/25 05:17:33;;;;;;;4.13;1.05;;;;;;;10.23;73.14;100406.34;5097774;28;20031;-49
2022/05/25 05:19:59;;;;;;;3.15;1.00;;;;;;;10.26;73.24;100404.09;5062807;28;20069;-48
2022/05/25 05:22:25;;;;;;;6.30;1.10;;;;;;;10.30;73.06;100420.66;5092877;28;20041;-51
2022/05/25 05:24:51;;;;;;;3.20;1.10;;;;;;;10.25;72.56;100405.13;5077006;28;20036;-50
2022/05/25 05:27:16;;;;;;;6.68;1.33;;;;;;;10.27;73.11;100426.41;5077037;28;20033;-50
2022/05/25 05:29:42;;;;;;;4.60;1.70;;;;;;;10.22;73.36;100429.66;5042353;28;20028;-50
2022/05/25 05:32:10;;;;;;;6.60;1.15;;;;;;;10.35;73.14;100422.81;5076891;28;20380;-48
2022/05/25 05:34:37;;;;;;;6.72;1.20;;;;;;;10.45;72.92;100425.97;5076782;28;20045;-51
2022/05/25 05:37:08;;;;;;;7.35;1.17;;;;;;;10.55;72.44;100423.78;5059077;28;20033;-49
2022/05/25 05:39:38;;;;;;;3.72;1.10;;;;;;;10.56;71.90;100393.22;5042278;28;20286;-48
2022/05/25 05:42:07;;;;;;;2.67;1.00;;;;;;;10.71;71.16;100422.66;5076454;28;20036;-48
2022/05/25 05:44:38;;;;;;;3.80;1.25;;;;;;;10.54;71.84;100399.81;5058705;28;20055;-48
2022/05/25 05:47:09;;;;;;;5.60;1.27;;;;;;;10.67;71.42;100412.50;5077072;28;20032;-47
2022/05/25 05:49:37;;;;;;;4.43;1.10;;;;;;;10.78;71.17;100420.03;5077169;28;20029;-49
2022/05/25 05:52:04;;;;;;;7.68;1.00;;;;;;;10.68;71.43;100403.41;5076362;28;20381;-48
2022/05/25 05:54:30;;;;;;;7.50;1.10;;;;;;;10.70;71.49;100412.97;5076380;28;20036;-48
2022/05/25 05:56:56;;;;;;;10.00;1.38;;;;;;;10.73;71.65;100409.03;5076458;28;20077;-50
2022/05/25 05:59:21;;;;;;;4.32;1.00;;;;;;;10.78;71.03;100399.38;5058478;28;20037;-48
2022/05/25 06:01:47;;;;;;;5.65;0.90;;;;;;;10.69;71.44;100381.75;5058633;28;20036;-48
2022/05/25 06:04:13;;;;;;;5.47;1.50;;;;;;;10.94;71.06;100405.44;5075911;28;20508;-49
2022/05/25 06:06:38;;;;;;;6.20;1.42;;;;;;;10.97;70.73;100383.56;5076202;28;20029;-48
2022/05/25 06:09:04;;;;;;;8.70;1.10;;;;;;;11.14;70.13;100410.94;5076198;28;20094;-48
2022/05/25 06:11:32;;;;;;;6.13;1.10;;;;;;;11.19;69.95;100412.00;5076225;28;20110;-49
2022/05/25 06:13:58;;;;;;;6.13;1.23;;;;;;;11.27;69.99;100407.50;5076668;28;20115;-49
2022/05/25 06:22:07;;;;;;;3.95;0.93;;;;;;;11.23;69.24;100418.63;5061342;28;20040;-48
2022/05/25 06:24:38;;;;;;;5.85;1.20;;;;;;;11.26;69.70;100422.81;5078465;28;20040;-53
2022/05/25 06:27:08;;;;;;;2.72;0.63;;;;;;;11.17;69.74;100413.25;5077813;28;20036;-52
2022/05/25 06:29:37;;;;;;;6.03;1.00;;;;;;;11.28;69.39;100419.91;5078675;28;20086;-47
2022/05/25 06:32:04;;;;;;;8.73;1.30;;;;;;;11.33;69.23;100412.06;5061544;28;20028;-47
2022/05/25 06:34:30;;;;;;;8.10;1.30;;;;;;;11.47;68.81;100416.47;5078706;28;20341;-48
2022/05/25 06:36:55;;;;;;;4.55;1.05;;;;;;;11.58;68.94;100417.75;5096405;28;20517;-46
2022/05/25 06:39:21;;;;;;;10.98;1.45;;;;;;;11.58;67.91;100412.38;5095872;28;20028;-48
2022/05/25 06:41:47;;;;;;;3.30;1.00;;;;;;;11.71;67.63;100420.50;5096478;28;20032;-47
2022/05/25 06:44:13;;;;;;;4.70;0.95;;;;;;;11.88;67.55;100438.97;5078391;28;20039;-52
2022/05/25 06:46:39;;;;;;;6.97;1.10;;;;;;;11.91;67.01;100435.91;5095916;28;20384;-48
2022/05/25 06:49:04;;;;;;;5.82;1.33;;;;;;;11.96;66.55;100430.72;5095872;28;20067;-48
2022/05/25 06:51:34;;;;;;;8.77;1.13;;;;;;;11.87;66.71;100439.97;5077849;28;20039;-47
2022/05/25 06:54:00;;;;;;;9.63;0.90;;;;;;;11.94;67.21;100436.34;5095632;28;20027;-47
2022/05/25 06:56:26;;;;;;;9.00;1.17;;;;;;;11.86;66.39;100416.81;5077376;28;20029;-47
2022/05/25 06:58:53;;;;;;;3.28;1.27;;;;;;;12.06;66.32;100443.81;5095890;28;20077;-48
2022/05/25 07:01:19;;;;;;;4.45;1.00;;;;;;;11.97;66.40;100438.59;5095714;28;20036;-48
2022/05/25 07:03:46;;;;;;;3.63;0.90;;;;;;;11.92;67.07;100435.72;5095092;28;20040;-48
2022/05/25 07:06:13;;;;;;;8.65;1.05;;;;;;;11.93;67.23;100429.28;5095356;28;20037;-48
2022/05/25 07:08:40;;;;;;;5.30;1.10;;;;;;;12.00;66.70;100432.81;5095484;28;20032;-51
2022/05/25 07:11:06;;;;;;;10.75;1.17;;;;;;;12.04;66.45;100441.31;5078370;28;20032;-50
2022/05/25 07:13:32;;;;;;;7.72;1.50;;;;;;;12.10;66.10;100458.50;5078980;28;20110;-48
2022/05/25 07:16:02;;;;;;;10.90;1.27;;;;;;;12.10;66.80;100439.66;5097224;28;20114;-50
2022/05/25 07:18:28;;;;;;;6.63;0.95;;;;;;;12.26;66.21;100435.75;5079391;28;20048;-47
2022/05/25 07:20:59;;;;;;;7.15;1.27;;;;;;;12.32;65.97;100410.72;5079390;28;20431;-47
2022/05/25 07:23:25;;;;;;;5.47;0.93;;;;;;;12.69;64.99;100430.78;5084559;28;20067;-49
2022/05/25 07:25:51;;;;;;;6.07;1.52;;;;;;;12.76;63.94;100418.16;5077930;28;20040;-49
2022/05/25 07:28:16;;;;;;;6.60;1.05;;;;;;;12.90;64.15;100427.03;5076937;28;20039;-50
2022/05/25 07:30:43;;;;;;;4.25;0.98;;;;;;;13.00;63.80;100413.16;5076540;28;20103;-50
2022/05/25 07:33:09;;;;;;;8.65;1.40;;;;;;;13.20;63.17;100423.84;5042248;28;20111;-53
2022/05/25 07:35:37;;;;;;;6.32;1.00;;;;;;;13.19;63.06;100414.13;5075641;28;20032;-50
2022/05/25 07:38:03;;;;;;;5.25;1.00;;;;;;;13.29;63.08;100436.06;5075842;28;20028;-52
2022/05/25 07:40:33;;;;;;;2.78;0.82;;;;;;;13.41;62.74;100435.44;5075160;28;20028;-52
2022/05/25 07:43:04;;;;;;;14.57;1.48;;;;;;;13.29;62.14;100430.66;5057550;28;20031;-50
2022/05/25 07:45:30;;;;;;;3.63;0.85;;;;;;;13.43;62.17;100430.66;5057525;28;20039;-48
2022/05/25 07:47:56;;;;;;;7.10;1.80;;;;;;;13.58;62.54;100442.03;5056443;28;20036;-46
2022/05/25 07:50:23;;;;;;;8.55;1.70;;;;;;;13.69;61.18;100427.03;5074666;28;20035;-49
2022/05/25 07:52:52;;;;;;;6.03;0.93;;;;;;;13.84;60.78;100442.94;5056020;28;20024;-47
2022/05/25 07:55:19;;;;;;;7.10;1.02;;;;;;;13.99;60.24;100448.88;5074061;28;20029;-46
2022/05/25 07:57:45;;;;;;;4.07;0.88;;;;;;;13.98;61.38;100424.78;5074492;28;20025;-45
2022/05/25 08:00:12;;;;;;;5.57;1.23;;;;;;;14.22;59.64;100432.09;5074420;28;20024;-47
2022/05/25 08:05:44;;;;;;;7.07;0.95;;;;;;;14.27;58.95;100412.56;5059761;28;20043;-48
2022/05/25 08:08:15;;;;;;;6.53;1.02;;;;;;;14.02;59.58;100415.22;5074124;28;20024;-47
2022/05/25 08:10:44;;;;;;;3.30;1.10;;;;;;;14.24;59.48;100434.59;5040502;28;20055;-46
2022/05/25 08:13:14;;;;;;;7.30;1.23;;;;;;;14.20;59.36;100430.69;5074009;28;20032;-47
2022/05/25 08:15:43;;;;;;;8.00;1.00;;;;;;;14.22;59.41;100424.00;5074195;28;20103;-46
2022/05/25 08:18:11;;;;;;;4.15;0.90;;;;;;;14.37;59.81;100426.38;5074103;28;20032;-46
2022/05/25 08:20:37;;;;;;;7.13;1.17;;;;;;;14.42;58.78;100423.03;5073845;28;20393;-47
2022/05/25 08:23:06;;;;;;;6.43;1.17;;;;;;;14.63;58.56;100438.88;5074008;28;20041;-48
2022/05/25 08:25:32;;;;;;;10.70;1.38;;;;;;;14.75;58.26;100435.50;5039882;28;20579;-46
2022/05/25 08:27:57;;;;;;;7.20;1.92;;;;;;;14.68;58.15;100436.34;5074951;28;20078;-45
2022/05/25 08:30:24;;;;;;;8.40;0.90;;;;;;;14.37;57.66;100423.69;5074938;28;20032;-45
2022/05/25 08:32:50;;;;;;;9.13;1.30;;;;;;;14.37;58.49;100434.50;5074875;28;20033;-48
2022/05/25 08:35:16;;;;;;;5.32;1.08;;;;;;;14.24;58.21;100411.09;5074302;28;20104;-47
2022/05/25 08:37:42;;;;;;;3.25;1.00;;;;;;;14.36;58.22;100423.91;5058739;28;20025;-46
2022/05/25 08:40:10;;;;;;;2.65;0.77;;;;;;;14.33;58.19;100415.19;5056941;28;20064;-46
2022/05/25 08:42:48;;;;;;;5.78;0.60;;;;;;;14.42;57.34;100423.03;5057496;28;20048;-46
2022/05/25 08:45:14;;;;;;;5.03;0.88;;;;;;;14.42;57.00;100396.03;5057935;28;20477;-46
2022/05/25 08:47:47;;;;;;;4.20;0.90;;;;;;;14.56;57.07;100410.22;5073823;28;20036;-47
2022/05/25 08:50:13;;;;;;;4.20;1.23;;;;;;;14.40;57.71;100414.31;5073682;28;20431;-49
2022/05/25 08:52:39;;;;;;;5.32;1.00;;;;;;;14.23;58.04;100401.34;5073756;28;20036;-49
2022/05/25 08:55:08;;;;;;;5.90;0.82;;;;;;;14.41;58.12;100411.41;5073631;28;20036;-47
2022/05/25 08:57:40;;;;;;;9.73;0.85;;;;;;;14.48;58.10;100422.97;5074009;28;20581;-47
2022/05/25 09:00:10;;;;;;;3.60;0.70;;;;;;;14.53;57.37;100412.34;5073717;28;20120;-45
2022/05/25 09:03:03;;;;;;;4.90;0.80;;;;;;;14.50;57.29;100409.25;5056211;28;20341;-47
2022/05/25 09:05:36;;;;;;;4.30;0.60;;;;;;;14.39;57.18;100426.16;5060387;28;20039;-46
2022/05/25 09:08:35;;;;;;;3.35;0.73;;;;;;;14.43;57.35;100403.91;5055723;28;20107;-47
2022/05/25 09:11:07;;;;;;;3.70;0.80;;;;;;;14.42;57.63;100402.25;5043475;28;20481;-48
2022/05/25 09:13:40;;;;;;;6.95;0.90;;;;;;;14.44;57.45;100413.66;5073405;28;20380;-47
2022/05/25 09:16:16;;;;;;;1.98;0.70;;;;;;;14.50;58.07;100410.09;5073992;28;20423;-45
2022/05/25 09:18:59;;;;;;;5.95;0.90;;;;;;;14.65;58.01;100404.38;5073662;28;20034;-46
2022/05/25 09:21:30;;;;;;;4.85;0.88;;;;;;;14.68;57.46;100403.91;5056103;28;20040;-46
2022/05/25 09:24:00;;;;;;;5.93;1.00;;;;;;;14.74;57.34;100401.38;5072446;28;20123;-45
2022/05/25 09:26:25;;;;;;;5.35;1.02;;;;;;;14.75;57.48;100393.06;5093367;28;20111;-46
2022/05/25 09:28:58;;;;;;;4.63;0.80;;;;;;;14.71;57.58;100391.84;5092958;28;20107;-46
2022/05/25 09:31:31;;;;;;;3.80;1.10;;;;;;;14.79;57.54;100396.13;5093168;28;20389;-46
2022/05/25 09:34:03;;;;;;;3.63;0.65;;;;;;;14.87;57.69;100393.13;5095835;28;20028;-46
2022/05/25 09:36:40;;;;;;;6.75;1.15;;;;;;;14.90;57.76;100388.09;5078957;28;20027;-49
2022/05/25 09:39:14;;;;;;;7.10;0.93;;;;;;;15.04;57.81;100398.78;5096909;28;20103;-45
2022/05/25 09:41:43;;;;;;;6.50;0.90;;;;;;;15.12;57.49;100386.81;5096615;28;20032;-49
2022/05/25 09:44:11;;;;;;;2.03;0.63;;;;;;;15.21;57.15;100388.19;5096655;28;20024;-45
2022/05/25 09:46:42;;;;;;;3.55;0.70;;;;;;;15.16;58.36;100394.28;5096325;28;20024;-46
2022/05/25 09:49:12;;;;;;;4.88;0.77;;;;;;;15.25;58.67;100403.75;5096297;28;20043;-46
2022/05/25 09:51:46;;;;;;;4.57;1.50;;;;;;;15.27;58.04;100393.53;5096342;28;20038;-46
2022/05/25 09:54:19;;;;;;;4.93;0.98;;;;;;;15.26;58.29;100372.91;5078299;28;20111;-45
2022/05/25 09:56:52;;;;;;;3.25;0.70;;;;;;;15.24;59.02;100391.25;5096554;28;20055;-45
2022/05/25 09:59:32;;;;;;;4.97;0.82;;;;;;;15.32;59.10;100392.00;5078591;28;20028;-44
2022/05/25 10:01:58;;;;;;;5.38;0.77;;;;;;;15.10;59.65;100381.66;5078273;28;20503;-45
2022/05/25 10:04:59;;;;;;;4.70;0.65;;;;;;;15.04;59.96;100383.41;5096157;28;20028;-47
2022/05/25 10:07:32;;;;;;;3.00;0.50;;;;;;;15.25;59.64;100387.50;5080897;28;20421;-51
2022/05/25 10:10:04;;;;;;;2.95;0.90;;;;;;;15.62;59.36;100398.28;5078455;28;20039;-48
2022/05/25 10:12:42;;;;;;;4.15;1.17;;;;;;;15.66;59.17;100388.66;5061631;28;20028;-47
2022/05/25 10:15:14;;;;;;;4.25;0.88;;;;;;;15.91;58.39;100393.13;5095716;28;20089;-47
2022/05/25 10:17:46;;;;;;;4.28;0.60;;;;;;;16.19;57.51;100387.06;5095785;28;20507;-49
2022/05/25 10:20:24;;;;;;;1.90;0.80;;;;;;;16.41;56.56;100376.50;5078107;28;20032;-49
2022/05/25 10:22:59;;;;;;;6.88;0.82;;;;;;;16.56;56.85;100372.50;5077653;28;20055;-48
2022/05/25 10:25:28;;;;;;;;;;;;;;;16.67;56.92;100387.94;5096411;28;20066;-47
2022/05/25 10:27:56;;;;;;;4.07;0.90;;;;;;;16.13;57.30;100370.94;5095657;28;19915;-47
2022/05/25 10:36:48;;;;;;;10.02;1.05;;;;;;;16.11;58.50;100376.56;5080667;28;20176;-45
2022/05/25 10:39:23;;;;;;;10.20;0.90;;;;;;;16.26;57.28;100384.25;5079950;28;20297;-47
2022/05/25 10:42:31;;;;;;;2.88;0.77;;;;;;;16.32;57.05;100406.88;5077259;28;20097;-48
2022/05/25 10:45:14;;;;;;;3.85;0.70;;;;;;;16.57;56.44;100393.16;5071987;28;20492;-47
2022/05/25 10:48:20;;;;;;;9.27;0.95;;;;;;;16.61;56.95;100399.75;5101257;28;20036;-48
2022/05/25 10:50:57;;;;;;;3.45;0.73;;;;;;;16.85;55.95;100395.16;5073839;28;20480;-48
2022/05/25 10:54:44;;;;;;;5.32;1.00;;;;;;;17.26;55.39;100393.34;5096915;28;20032;-45
2022/05/25 10:56:53;;;;;;;2.83;0.80;;;;;;;17.47;54.67;100399.19;5069901;28;20065;-50
2022/05/25 10:59:40;;;;;;;5.10;0.70;;;;;;;16.82;56.14;100410.00;5095677;28;20522;-46
2022/05/25 11:02:28;;;;;;;8.50;0.80;;;;;;;16.76;56.49;100401.97;5095611;28;20039;-48
2022/05/25 11:05:34;;;;;;;2.20;0.77;;;;;;;16.44;57.45;100392.31;5095904;28;20036;-47
2022/05/25 11:08:18;;;;;;;5.90;1.23;;;;;;;16.37;58.13;100396.19;5068893;28;20028;-48
2022/05/25 11:11:08;;;;;;;2.80;0.70;;;;;;;16.29;58.06;100397.34;5095826;28;20036;-47
2022/05/25 11:14:14;;;;;;;4.22;0.73;;;;;;;16.04;59.02;100403.75;5097038;28;20035;-47
2022/05/25 11:17:11;;;;;;;7.10;0.90;;;;;;;16.12;58.97;100389.06;5069245;28;20111;-46
2022/05/25 11:20:16;;;;;;;3.78;0.63;;;;;;;16.74;56.73;100377.00;5064435;28;20039;-46
2022/05/25 11:23:14;;;;;;;5.28;0.75;;;;;;;16.64;57.62;100375.69;5065223;28;20043;-47
2022/05/25 11:26:06;;;;;;;2.00;0.60;;;;;;;16.28;58.40;100375.91;5079684;28;20062;-48
2022/05/25 11:29:00;;;;;;;4.07;0.70;;;;;;;16.05;59.55;100382.94;5063373;28;20032;-48
2022/05/25 11:31:48;;;;;;;2.88;0.80;;;;;;;15.92;59.67;100375.00;5063998;28;20032;-46
2022/05/25 11:34:45;;;;;;;4.38;0.82;;;;;;;15.77;60.27;100389.78;5094449;28;20095;-47
2022/05/25 11:37:44;;;;;;;3.15;0.60;;;;;;;15.64;60.88;100374.53;5062518;28;20455;-46
2022/05/25 11:40:38;;;;;;;3.60;0.80;;;;;;;15.60;61.26;100370.63;5062434;28;20028;-46
2022/05/25 11:43:38;;;;;;;4.70;0.82;;;;;;;15.70;61.34;100374.66;5079262;28;20496;-47
2022/05/25 11:46:31;;;;;;;2.15;0.60;;;;;;;15.65;61.76;100381.56;5063038;28;20035;-47
2022/05/25 11:49:37;;;;;;;3.47;0.70;;;;;;;15.64;62.31;100387.25;5081082;28;20085;-48
2022/05/25 11:52:12;;;;;;;;;;;;;;;15.70;62.20;100382.78;5070689;28;20057;-48
2022/05/25 11:55:06;;;;;;;4.38;0.90;;;;;;;15.67;62.58;100394.88;5094451;28;19908;-47
2022/05/25 11:57:39;;;;;;;6.10;0.68;;;;;;;15.73;62.22;100382.31;5080754;28;20112;-48
2022/05/25 12:00:45;;;;;;;1.50;0.65;;;;;;;15.84;62.00;100385.13;5095783;28;20032;-46
2022/05/25 12:03:50;;;;;;;3.20;0.80;;;;;;;15.91;61.75;100386.88;5069285;28;20028;-51
2022/05/25 12:06:50;;;;;;;4.63;1.00;;;;;;;15.97;61.70;100385.97;5069411;28;20032;-51
2022/05/25 12:09:47;;;;;;;2.25;0.90;;;;;;;16.01;61.89;100382.56;5082483;28;20043;-48
2022/05/25 12:12:45;;;;;;;3.28;0.77;;;;;;;16.03;61.54;100383.16;5083359;28;20614;-47
2022/05/25 12:15:36;;;;;;;1.77;0.55;;;;;;;15.90;62.23;100396.06;5082066;28;20023;-51
2022/05/25 12:18:13;;;;;;;2.35;0.68;;;;;;;15.71;62.54;100393.38;5077016;28;20476;-48
2022/05/25 12:20:48;;;;;;;5.05;1.05;;;;;;;15.59;63.74;100400.63;5077591;28;20392;-46